KCBK/CBK METAR and TAF weather

Enter ICAO airport designator
Station Type Date Time Source
KCBK METAR 2018/12/12 23:15 UTC NOAA

KCBK 122315Z AUTO 02011KT 10SM CLR 06/M06 A2967 RMK AO2


Station Type Date Time Source
KCBK Decoded METAR 2018/12/12 23:15 UTC NOAA

Station name not available
Dec 12, 2018 - 06:15 PM EST / 2018.12.12 2315 UTC
Wind: from the NNE (020 degrees) at 13 MPH (11 KT):0
Visibility: 10 mile(s):0
Sky conditions: clear
Temperature: 42 F (6 C)
Dew Point: 21 F (-6 C)
Relative Humidity: 41%
Pressure (altimeter): 29.67 in. Hg (1004 hPa)
ob: KCBK 122315Z AUTO 02011KT 10SM CLR 06/M06 A2967 RMK AO2
cycle: 23

Station Type Date Time Source
KCBK TAF UTC NOAA

Error!


Example: see airport list